createdAt,value
2022-09-30T00:04:38.796Z,6.47
2022-09-30T00:10:00.586Z,6.42
2022-09-30T00:15:22.361Z,6.37
2022-09-30T00:20:44.178Z,6.35
2022-09-30T00:26:09.231Z,6.38
2022-09-30T00:31:33.700Z,6.37
2022-09-30T00:36:55.740Z,6.33
2022-09-30T00:42:17.602Z,6.31
2022-09-30T00:47:54.785Z,6.32
2022-09-30T00:53:23.360Z,6.03
2022-09-30T00:59:00.268Z,6.06
2022-09-30T01:04:24.914Z,5.93
2022-09-30T01:09:46.848Z,5.87
2022-09-30T01:15:09.041Z,5.83
2022-09-30T01:21:03.906Z,5.73
2022-09-30T01:26:39.473Z,5.65
2022-09-30T01:32:31.702Z,5.57
2022-09-30T01:37:56.133Z,5.56
2022-09-30T01:43:42.209Z,5.49
2022-09-30T01:49:25.504Z,5.48
2022-09-30T01:55:01.578Z,5.49
2022-09-30T02:00:23.618Z,5.39
2022-09-30T02:06:10.070Z,5.42
2022-09-30T02:11:35.909Z,5.20
2022-09-30T02:17:05.589Z,5.29
2022-09-30T02:22:39.973Z,5.21
2022-09-30T02:28:07.638Z,5.28
2022-09-30T02:33:35.297Z,5.28
2022-09-30T02:39:06.567Z,5.29
2022-09-30T02:44:29.476Z,5.21
2022-09-30T02:50:18.331Z,5.03
2022-09-30T02:56:00.348Z,5.03
2022-09-30T03:01:22.491Z,4.96
2022-09-30T03:06:44.353Z,4.57
2022-09-30T03:12:16.887Z,4.54
2022-09-30T03:17:50.926Z,4.62
2022-09-30T03:23:22.879Z,4.30
2022-09-30T03:29:20.420Z,4.47
2022-09-30T03:34:50.915Z,4.50
2022-09-30T03:40:22.575Z,4.57
2022-09-30T03:45:57.161Z,4.53
2022-09-30T03:51:20.617Z,4.51
2022-09-30T03:56:42.705Z,4.64
2022-09-30T04:02:04.747Z,4.58
2022-09-30T04:07:26.574Z,4.51
2022-09-30T04:12:48.341Z,4.57
2022-09-30T04:18:10.347Z,4.71
2022-09-30T04:23:37.778Z,4.64
2022-09-30T04:28:59.524Z,4.72
2022-09-30T04:34:21.520Z,4.72
2022-09-30T04:39:43.271Z,4.76
2022-09-30T04:45:05.703Z,4.83
2022-09-30T04:50:27.495Z,4.92
2022-09-30T04:55:49.277Z,5.02
2022-09-30T05:01:13.812Z,5.14
2022-09-30T05:06:35.731Z,5.35
2022-09-30T05:11:57.529Z,5.59
2022-09-30T05:17:19.285Z,5.81
2022-09-30T05:22:41.127Z,5.92
2022-09-30T05:28:02.917Z,6.00
2022-09-30T05:33:25.197Z,6.01
2022-09-30T05:38:50.757Z,6.39
2022-09-30T05:44:12.746Z,6.63
2022-09-30T05:49:34.567Z,6.91
2022-09-30T05:54:56.414Z,6.91
2022-09-30T06:00:19.394Z,7.15
2022-09-30T06:05:41.268Z,7.64
2022-09-30T06:11:08.305Z,7.36
2022-09-30T06:16:30.144Z,7.38
2022-09-30T06:21:51.971Z,8.44
2022-09-30T06:27:13.786Z,10.59
2022-09-30T06:32:35.588Z,12.88
2022-09-30T06:37:57.431Z,10.69
2022-09-30T06:43:19.921Z,9.91
2022-09-30T06:48:41.797Z,9.98
2022-09-30T06:54:03.696Z,10.13
2022-09-30T06:59:25.593Z,13.61
2022-09-30T07:04:47.360Z,19.31
2022-09-30T07:10:10.098Z,20.84
2022-09-30T07:15:31.869Z,17.25
2022-09-30T07:20:55.276Z,16.19
2022-09-30T07:26:22.144Z,15.55
2022-09-30T07:31:43.986Z,16.32
2022-09-30T07:37:05.789Z,17.60
2022-09-30T07:42:27.651Z,16.19
2022-09-30T07:47:53.459Z,17.88
2022-09-30T07:53:15.706Z,17.24
2022-09-30T07:58:37.810Z,15.47
2022-09-30T08:04:03.281Z,15.60
2022-09-30T08:09:27.914Z,16.11
2022-09-30T08:14:49.905Z,15.05
2022-09-30T08:20:13.819Z,14.36
2022-09-30T08:25:37.504Z,15.00
2022-09-30T08:31:13.702Z,14.77
2022-09-30T08:36:35.506Z,14.65
2022-09-30T08:42:35.549Z,14.74
2022-09-30T08:47:55.305Z,14.52
2022-09-30T08:53:29.949Z,14.72
2022-09-30T08:58:56.657Z,14.39
2022-09-30T09:04:18.807Z,13.66
2022-09-30T09:09:49.437Z,13.91
2022-09-30T09:15:18.572Z,14.27
2022-09-30T09:20:55.043Z,13.87
2022-09-30T09:26:17.000Z,14.36
2022-09-30T09:31:38.870Z,14.57
2022-09-30T09:37:22.633Z,13.83
2022-09-30T09:42:51.274Z,14.35
2022-09-30T09:48:13.979Z,14.50
2022-09-30T09:53:54.553Z,14.19
2022-09-30T09:59:20.137Z,13.94
2022-09-30T10:04:48.384Z,13.91
2022-09-30T10:10:23.761Z,13.91
2022-09-30T10:15:47.245Z,13.90
2022-09-30T10:21:21.735Z,13.90
2022-09-30T10:26:48.482Z,14.28
2022-09-30T10:32:13.426Z,14.36
2022-09-30T10:37:35.312Z,14.24
2022-09-30T10:42:58.159Z,14.50
2022-09-30T10:48:24.253Z,14.66
2022-09-30T10:53:46.344Z,14.95
2022-09-30T10:59:28.862Z,14.86
2022-09-30T11:05:15.566Z,15.02
2022-09-30T11:10:51.389Z,15.14
2022-09-30T11:16:33.125Z,15.23
2022-09-30T11:22:05.519Z,14.66
2022-09-30T11:27:53.242Z,14.93
2022-09-30T11:34:02.900Z,14.60
2022-09-30T11:39:48.625Z,14.62
2022-09-30T11:45:27.928Z,14.98
2022-09-30T11:51:08.089Z,14.92
2022-09-30T11:56:51.448Z,14.99
2022-09-30T12:02:36.008Z,15.50
2022-09-30T12:08:12.480Z,15.22
2022-09-30T12:13:39.520Z,14.93
2022-09-30T12:19:13.903Z,14.92
2022-09-30T12:24:38.750Z,14.76
2022-09-30T12:30:15.369Z,14.79
2022-09-30T12:35:42.751Z,14.41
2022-09-30T12:41:25.890Z,14.68
2022-09-30T12:47:17.468Z,14.39
2022-09-30T12:52:39.476Z,14.56
2022-09-30T12:58:01.742Z,14.75
2022-09-30T13:03:24.559Z,14.83
2022-09-30T13:09:18.856Z,14.65
2022-09-30T13:14:41.889Z,14.45
2022-09-30T13:20:42.001Z,14.22
2022-09-30T13:26:24.599Z,14.33
2022-09-30T13:31:49.185Z,14.28
2022-09-30T13:37:31.189Z,14.36
2022-09-30T13:42:55.800Z,14.42
2022-09-30T13:48:36.485Z,14.21
2022-09-30T13:54:06.129Z,14.30
2022-09-30T13:59:55.841Z,14.25
2022-09-30T14:05:26.602Z,14.24
2022-09-30T14:11:08.600Z,14.15
2022-09-30T14:16:40.269Z,13.89
2022-09-30T14:22:08.627Z,14.03
2022-09-30T14:27:43.866Z,13.89
2022-09-30T14:33:22.546Z,13.61
2022-09-30T14:38:48.727Z,13.83
2022-09-30T14:44:14.723Z,13.75
2022-09-30T14:49:36.607Z,13.59
2022-09-30T14:54:58.384Z,13.62
2022-09-30T15:00:31.269Z,13.47
2022-09-30T15:05:53.430Z,13.44
2022-09-30T15:11:24.680Z,13.33
2022-09-30T15:16:49.757Z,13.29
2022-09-30T15:22:13.310Z,13.29
2022-09-30T15:27:36.449Z,13.29
2022-09-30T15:33:01.152Z,13.21
2022-09-30T15:38:26.296Z,13.21
2022-09-30T15:43:50.357Z,13.19
2022-09-30T15:49:34.147Z,13.13
2022-09-30T15:54:57.567Z,13.13
2022-09-30T16:00:38.170Z,13.01
2022-09-30T16:06:06.978Z,13.10
2022-09-30T16:11:39.038Z,12.99
2022-09-30T16:17:03.217Z,13.07
2022-09-30T16:22:37.028Z,13.09
2022-09-30T16:28:01.860Z,12.96
2022-09-30T16:33:23.801Z,12.92
2022-09-30T16:38:45.571Z,13.00
2022-09-30T16:44:07.525Z,13.00
2022-09-30T16:49:29.361Z,12.97
2022-09-30T16:54:51.082Z,12.97
2022-09-30T17:00:14.976Z,13.07
2022-09-30T17:05:39.922Z,12.99
2022-09-30T17:11:01.706Z,12.98
2022-09-30T17:16:24.375Z,13.02
2022-09-30T17:21:46.190Z,12.94
2022-09-30T17:27:09.102Z,12.83
2022-09-30T17:32:30.852Z,12.75
2022-09-30T17:37:52.642Z,12.63
2022-09-30T17:43:14.418Z,12.49
2022-09-30T17:48:36.208Z,12.44
2022-09-30T17:53:58.029Z,12.52
2022-09-30T17:59:19.794Z,12.57
2022-09-30T18:04:41.607Z,12.53
2022-09-30T18:10:03.554Z,12.57
2022-09-30T18:15:25.450Z,12.45
2022-09-30T18:20:48.699Z,12.58
2022-09-30T18:26:10.445Z,12.61
2022-09-30T18:31:32.428Z,12.56
2022-09-30T18:36:54.690Z,12.54
2022-09-30T18:42:16.592Z,12.53
2022-09-30T18:47:39.935Z,12.60
2022-09-30T18:53:05.657Z,12.53
2022-09-30T18:58:30.385Z,12.61
2022-09-30T19:03:52.217Z,12.68
2022-09-30T19:09:14.869Z,12.72
2022-09-30T19:14:36.629Z,12.56
2022-09-30T19:19:59.397Z,12.60
2022-09-30T19:25:21.212Z,12.59
2022-09-30T19:30:43.017Z,12.66
2022-09-30T19:36:14.409Z,12.69
2022-09-30T19:41:36.683Z,12.79
2022-09-30T19:46:58.471Z,12.73
2022-09-30T19:52:22.106Z,12.55
2022-09-30T19:57:44.151Z,12.67
2022-09-30T20:03:05.925Z,12.67
2022-09-30T20:08:31.606Z,12.73
2022-09-30T20:13:55.508Z,12.72
2022-09-30T20:19:18.339Z,12.60
2022-09-30T20:24:40.081Z,12.50
2022-09-30T20:30:01.849Z,12.37
2022-09-30T20:35:24.203Z,12.52
2022-09-30T20:40:45.974Z,12.72
2022-09-30T20:46:07.810Z,12.64
2022-09-30T20:51:31.193Z,12.57
2022-09-30T20:57:06.778Z,12.54
2022-09-30T21:02:29.567Z,12.50
2022-09-30T21:07:51.378Z,12.50
2022-09-30T21:13:13.135Z,12.40
2022-09-30T21:18:34.899Z,12.40
2022-09-30T21:23:56.660Z,12.44
2022-09-30T21:29:18.925Z,12.44
2022-09-30T21:34:40.965Z,12.45
2022-09-30T21:40:02.764Z,12.46
2022-09-30T21:45:24.749Z,12.40
2022-09-30T21:50:46.569Z,12.34
2022-09-30T21:56:10.215Z,12.29
2022-09-30T22:01:32.632Z,12.19
2022-09-30T22:06:54.562Z,12.04
2022-09-30T22:12:16.315Z,12.07
2022-09-30T22:17:38.120Z,12.08
2022-09-30T22:23:00.010Z,12.04
2022-09-30T22:28:21.799Z,12.11
2022-09-30T22:33:43.718Z,12.14
2022-09-30T22:39:05.512Z,12.04
2022-09-30T22:44:31.935Z,12.05
2022-09-30T22:49:53.698Z,12.07
2022-09-30T22:55:15.464Z,12.08
2022-09-30T23:00:37.292Z,12.14
2022-09-30T23:06:03.743Z,12.14
2022-09-30T23:11:25.502Z,12.16
2022-09-30T23:16:47.765Z,12.16
2022-09-30T23:22:09.638Z,12.17
2022-09-30T23:27:31.448Z,12.09
2022-09-30T23:32:53.299Z,12.09
2022-09-30T23:38:15.672Z,11.99
2022-09-30T23:43:37.656Z,12.06
2022-09-30T23:49:00.796Z,12.00
2022-09-30T23:54:22.551Z,11.96
2022-09-30T23:59:44.314Z,12.04
